createdAt,value
2022-11-13T00:01:33.187Z,63.78
2022-11-13T00:04:19.261Z,60.03
2022-11-13T00:07:05.178Z,60.90
2022-11-13T00:09:51.169Z,55.22
2022-11-13T00:12:37.061Z,56.05
2022-11-13T00:15:23.090Z,54.33
2022-11-13T00:18:09.144Z,57.33
2022-11-13T00:20:55.113Z,54.80
2022-11-13T00:23:41.234Z,52.75
2022-11-13T00:26:28.961Z,52.55
2022-11-13T00:29:14.510Z,54.25
2022-11-13T00:32:00.515Z,53.30
2022-11-13T00:34:48.087Z,55.88
2022-11-13T00:37:34.354Z,55.63
2022-11-13T00:40:20.335Z,57.88
2022-11-13T00:43:06.285Z,58.20
2022-11-13T00:48:38.578Z,58.20
2022-11-13T00:51:24.365Z,55.35
2022-11-13T00:54:10.288Z,57.05
2022-11-13T00:56:56.082Z,57.92
2022-11-13T00:59:41.930Z,59.70
2022-11-13T01:02:28.097Z,56.72
2022-11-13T01:05:14.195Z,51.63
2022-11-13T01:08:00.006Z,53.53
2022-11-13T01:10:52.992Z,50.08
2022-11-13T01:13:44.270Z,52.15
2022-11-13T01:16:30.042Z,45.60
2022-11-13T01:19:15.875Z,49.90
2022-11-13T01:22:01.949Z,48.20
2022-11-13T01:24:47.987Z,46.35
2022-11-13T01:27:36.216Z,43.75
2022-11-13T01:30:22.023Z,43.60
2022-11-13T01:33:08.152Z,43.72
2022-11-13T01:38:39.655Z,44.38
2022-11-13T01:41:27.273Z,45.33
2022-11-13T01:44:14.413Z,42.90
2022-11-13T01:47:00.441Z,46.33
2022-11-13T01:49:47.615Z,45.80
2022-11-13T01:52:35.177Z,41.92
2022-11-13T01:55:21.343Z,43.58
2022-11-13T01:58:09.343Z,44.45
2022-11-13T02:00:55.378Z,40.88
2022-11-13T02:03:41.174Z,43.28
2022-11-13T02:06:29.470Z,46.63
2022-11-13T02:09:16.968Z,46.92
2022-11-13T02:12:03.173Z,44.67
2022-11-13T02:14:54.421Z,43.85
2022-11-13T02:17:43.669Z,48.22
2022-11-13T02:20:41.546Z,43.30
2022-11-13T02:23:46.307Z,48.28
2022-11-13T02:26:32.450Z,45.47
2022-11-13T02:29:18.609Z,52.38
2022-11-13T02:32:04.503Z,51.63
2022-11-13T02:34:50.426Z,54.05
2022-11-13T02:37:36.395Z,51.38
2022-11-13T02:40:22.429Z,50.08
2022-11-13T02:43:08.392Z,50.70
2022-11-13T02:45:54.330Z,53.38
2022-11-13T02:48:40.310Z,50.55
2022-11-13T02:51:26.260Z,48.40
2022-11-13T02:54:16.754Z,51.40
2022-11-13T02:57:03.355Z,52.92
2022-11-13T02:59:49.568Z,56.55
2022-11-13T03:02:35.706Z,58.85
2022-11-13T03:05:21.642Z,58.63
2022-11-13T03:08:07.539Z,58.28
2022-11-13T03:10:54.176Z,58.10
2022-11-13T03:13:41.188Z,52.85
2022-11-13T03:16:27.172Z,56.42
2022-11-13T03:19:13.229Z,50.70
2022-11-13T03:21:59.205Z,50.35
2022-11-13T03:24:45.043Z,52.03
2022-11-13T03:27:32.007Z,53.80
2022-11-13T03:30:17.935Z,54.83
2022-11-13T03:33:03.768Z,56.28
2022-11-13T03:35:49.756Z,57.78
2022-11-13T03:38:35.978Z,59.25
2022-11-13T03:41:23.074Z,58.47
2022-11-13T03:44:09.034Z,59.15
2022-11-13T03:46:54.929Z,55.45
2022-11-13T03:49:40.867Z,58.80
2022-11-13T03:52:27.020Z,56.58
2022-11-13T03:55:12.858Z,59.95
2022-11-13T03:57:59.146Z,53.22
2022-11-13T04:00:45.593Z,53.05
2022-11-13T04:03:31.508Z,63.13
2022-11-13T04:09:03.846Z,51.13
2022-11-13T04:11:49.673Z,55.33
2022-11-13T04:14:35.737Z,52.88
2022-11-13T04:17:21.789Z,52.17
2022-11-13T04:20:08.291Z,53.50
2022-11-13T04:22:55.114Z,57.95
2022-11-13T04:25:41.306Z,56.35
2022-11-13T04:28:27.731Z,58.40
2022-11-13T04:31:13.813Z,53.47
2022-11-13T04:33:59.749Z,52.45
2022-11-13T04:36:45.833Z,51.72
2022-11-13T04:39:31.889Z,51.75
2022-11-13T04:42:36.498Z,50.80
2022-11-13T04:45:23.411Z,48.67
2022-11-13T04:48:09.570Z,48.78
2022-11-13T04:53:41.159Z,53.63
2022-11-13T04:56:27.100Z,54.60
2022-11-13T04:59:13.007Z,60.60
2022-11-13T05:01:59.080Z,54.47
2022-11-13T05:04:44.957Z,51.28
2022-11-13T05:07:30.989Z,59.45
2022-11-13T05:10:17.043Z,52.00
2022-11-13T05:13:02.923Z,47.65
2022-11-13T05:15:48.903Z,48.33
2022-11-13T05:18:35.724Z,47.00
2022-11-13T05:21:21.450Z,45.55
2022-11-13T05:24:07.852Z,48.20
2022-11-13T05:26:53.537Z,46.05
2022-11-13T05:29:39.617Z,48.45
2022-11-13T05:32:25.542Z,47.97
2022-11-13T05:35:11.542Z,48.00
2022-11-13T05:38:00.741Z,46.50
2022-11-13T05:40:46.702Z,45.22
2022-11-13T05:43:33.192Z,50.53
2022-11-13T05:46:20.328Z,49.60
2022-11-13T05:49:06.577Z,46.97
2022-11-13T05:51:54.870Z,48.00
2022-11-13T05:54:40.800Z,46.70
2022-11-13T05:57:26.761Z,43.80
2022-11-13T06:00:12.993Z,41.97
2022-11-13T06:02:58.877Z,43.97
2022-11-13T06:05:44.741Z,41.42
2022-11-13T06:08:30.956Z,43.90
2022-11-13T06:11:18.497Z,40.22
2022-11-13T06:14:04.125Z,41.22
2022-11-13T06:16:50.182Z,43.90
2022-11-13T06:19:36.280Z,45.85
2022-11-13T06:22:23.402Z,46.72
2022-11-13T06:25:09.106Z,46.92
2022-11-13T06:27:55.150Z,44.20
2022-11-13T06:30:41.153Z,51.50
2022-11-13T06:33:28.969Z,49.72
2022-11-13T06:36:16.155Z,52.78
2022-11-13T06:39:02.584Z,55.33
2022-11-13T06:41:48.621Z,51.13
2022-11-13T06:44:34.461Z,53.83
2022-11-13T06:47:20.390Z,50.58
2022-11-13T06:50:06.788Z,49.58
2022-11-13T06:52:52.699Z,47.58
2022-11-13T06:55:43.609Z,44.72
2022-11-13T06:58:29.574Z,45.00
2022-11-13T07:01:20.210Z,44.35
2022-11-13T07:04:07.535Z,48.20
2022-11-13T07:06:53.587Z,47.22
2022-11-13T07:09:39.643Z,59.35
2022-11-13T07:12:25.683Z,55.72
2022-11-13T07:15:11.963Z,52.00
2022-11-13T07:18:01.303Z,53.78
2022-11-13T07:20:47.454Z,57.03
2022-11-13T07:23:33.845Z,52.28
2022-11-13T07:26:20.401Z,60.97
2022-11-13T07:29:06.188Z,59.72
2022-11-13T07:31:53.553Z,65.38
2022-11-13T07:34:39.586Z,66.20
2022-11-13T07:37:25.638Z,66.40
2022-11-13T07:40:12.107Z,59.90
2022-11-13T07:42:59.483Z,61.45
2022-11-13T07:45:45.277Z,56.45
2022-11-13T07:51:16.942Z,54.38
2022-11-13T07:54:02.998Z,54.58
2022-11-13T07:56:48.831Z,58.47
2022-11-13T07:59:34.907Z,65.60
2022-11-13T08:02:25.244Z,57.70
2022-11-13T08:05:12.824Z,65.45
2022-11-13T08:07:58.729Z,78.30
2022-11-13T08:10:44.754Z,75.43
2022-11-13T08:13:30.672Z,71.15
2022-11-13T08:16:16.501Z,49.67
2022-11-13T08:19:02.832Z,52.47
2022-11-13T08:21:48.681Z,51.40
2022-11-13T08:24:34.680Z,52.10
2022-11-13T08:27:21.429Z,54.72
2022-11-13T08:30:08.019Z,55.17
2022-11-13T08:32:53.985Z,63.28
2022-11-13T08:35:39.983Z,59.63
2022-11-13T08:38:26.420Z,60.72
2022-11-13T08:41:12.433Z,62.95
2022-11-13T08:43:58.431Z,63.40
2022-11-13T08:46:44.549Z,60.47
2022-11-13T08:49:30.554Z,64.55
2022-11-13T08:52:16.638Z,58.08
2022-11-13T08:55:02.424Z,57.92
2022-11-13T08:57:48.360Z,56.30
2022-11-13T09:00:34.270Z,57.35
2022-11-13T09:03:20.210Z,49.55
2022-11-13T09:06:09.315Z,46.65
2022-11-13T09:08:55.518Z,45.47
2022-11-13T09:11:41.695Z,49.35
2022-11-13T09:14:28.213Z,44.53
2022-11-13T09:17:14.355Z,41.00
2022-11-13T09:20:03.999Z,38.70
2022-11-13T09:22:56.903Z,48.35
2022-11-13T09:25:43.047Z,40.83
2022-11-13T09:28:29.119Z,41.25
2022-11-13T09:31:15.571Z,44.30
2022-11-13T09:34:01.400Z,47.58
2022-11-13T09:36:47.384Z,43.80
2022-11-13T09:39:33.579Z,45.83
2022-11-13T09:42:21.032Z,49.13
2022-11-13T09:45:08.697Z,50.10
2022-11-13T09:47:55.591Z,48.42
2022-11-13T09:50:41.670Z,46.72
2022-11-13T09:53:29.270Z,53.15
2022-11-13T09:56:34.053Z,50.20
2022-11-13T09:59:38.232Z,41.58
2022-11-13T10:02:27.921Z,48.78
2022-11-13T10:05:19.810Z,46.67
2022-11-13T10:08:12.078Z,45.55
2022-11-13T10:11:11.942Z,41.17
2022-11-13T10:14:02.806Z,48.47
2022-11-13T10:16:57.028Z,58.05
2022-11-13T10:19:45.673Z,58.92
2022-11-13T10:22:42.961Z,74.50
2022-11-13T10:25:33.710Z,57.35
2022-11-13T10:31:29.114Z,91.65
2022-11-13T10:34:15.528Z,35.25
2022-11-13T10:37:14.134Z,29.33
2022-11-13T10:40:00.275Z,30.55
2022-11-13T10:42:46.099Z,31.20
2022-11-13T10:45:31.996Z,33.78
2022-11-13T10:48:22.527Z,32.15
2022-11-13T10:51:22.923Z,31.02
2022-11-13T10:54:23.592Z,34.70
2022-11-13T10:57:21.605Z,30.27
2022-11-13T11:00:21.311Z,28.67
2022-11-13T11:03:27.088Z,30.85
2022-11-13T11:06:12.940Z,28.98
2022-11-13T11:09:14.140Z,27.55
2022-11-13T11:12:18.450Z,30.08
2022-11-13T11:15:07.478Z,29.48
2022-11-13T11:17:55.489Z,26.40
2022-11-13T11:20:48.118Z,30.45
2022-11-13T11:23:33.962Z,27.92
2022-11-13T11:26:25.941Z,35.22
2022-11-13T11:29:30.726Z,26.15
2022-11-13T11:32:16.475Z,29.25
2022-11-13T11:35:17.306Z,27.45
2022-11-13T11:38:21.817Z,31.45
2022-11-13T11:41:15.990Z,41.95
2022-11-13T11:44:17.817Z,32.80
2022-11-13T11:47:03.864Z,30.40
2022-11-13T11:49:50.379Z,27.63
2022-11-13T11:52:41.751Z,25.95
2022-11-13T11:55:27.891Z,29.58
2022-11-13T11:58:32.809Z,30.08
2022-11-13T12:01:37.764Z,28.00
2022-11-13T12:04:43.753Z,29.40
2022-11-13T12:07:29.825Z,28.80
2022-11-13T12:10:27.798Z,27.67
2022-11-13T12:13:13.650Z,28.60
2022-11-13T12:16:24.634Z,31.88
2022-11-13T12:19:40.606Z,43.85
2022-11-13T12:22:30.997Z,47.15
2022-11-13T12:25:39.625Z,32.40
2022-11-13T12:28:34.917Z,27.10
2022-11-13T12:31:39.270Z,24.73
2022-11-13T12:34:34.676Z,27.00
2022-11-13T12:37:27.511Z,26.58
2022-11-13T12:40:16.461Z,26.75
2022-11-13T12:43:02.439Z,25.52
2022-11-13T12:45:55.952Z,27.42
2022-11-13T12:48:43.035Z,29.25
2022-11-13T12:51:39.305Z,27.67
2022-11-13T12:54:32.680Z,29.88
2022-11-13T12:57:22.583Z,27.92
2022-11-13T13:00:27.843Z,32.05
2022-11-13T13:03:32.494Z,31.00
2022-11-13T13:06:24.458Z,28.83
2022-11-13T13:09:10.336Z,28.48
2022-11-13T13:11:59.327Z,30.27
2022-11-13T13:14:57.563Z,31.05
2022-11-13T13:17:43.586Z,28.05
2022-11-13T13:20:31.698Z,31.25
2022-11-13T13:23:26.786Z,28.13
2022-11-13T13:26:22.012Z,30.27
2022-11-13T13:29:34.282Z,24.95
2022-11-13T13:32:21.322Z,26.50
2022-11-13T13:35:16.294Z,24.60
2022-11-13T13:38:16.478Z,26.30
2022-11-13T13:41:02.256Z,25.55
2022-11-13T13:43:48.302Z,32.10
2022-11-13T13:46:35.193Z,27.90
2022-11-13T13:49:22.802Z,30.50
2022-11-13T13:52:13.691Z,35.40
2022-11-13T13:55:00.613Z,33.78
2022-11-13T13:57:46.956Z,33.65
2022-11-13T14:00:33.309Z,33.47
2022-11-13T14:03:23.185Z,35.38
2022-11-13T14:06:09.847Z,34.38
2022-11-13T14:08:55.547Z,37.40
2022-11-13T14:11:41.654Z,36.25
2022-11-13T14:14:28.093Z,36.75
2022-11-13T14:17:22.298Z,34.25
2022-11-13T14:20:12.405Z,38.40
2022-11-13T14:22:58.030Z,37.53
2022-11-13T14:25:44.592Z,38.47
2022-11-13T14:28:32.027Z,32.00
2022-11-13T14:31:18.290Z,33.65
2022-11-13T14:34:10.411Z,38.97
2022-11-13T14:36:56.452Z,36.53
2022-11-13T14:39:45.873Z,37.50
2022-11-13T14:42:37.272Z,43.83
2022-11-13T14:45:24.933Z,43.42
2022-11-13T14:48:21.411Z,51.97
2022-11-13T14:51:20.045Z,59.05
2022-11-13T14:54:08.909Z,64.35
2022-11-13T14:56:55.470Z,61.58
2022-11-13T14:59:44.610Z,62.10
2022-11-13T15:02:30.827Z,60.85
2022-11-13T15:05:16.800Z,53.92
2022-11-13T15:08:02.890Z,47.38
2022-11-13T15:10:48.943Z,50.67
2022-11-13T15:13:34.945Z,41.70
2022-11-13T15:16:26.105Z,47.58
2022-11-13T15:19:14.832Z,55.25
2022-11-13T15:25:13.266Z,57.45
2022-11-13T15:27:59.369Z,58.20
2022-11-13T15:30:45.222Z,61.63
2022-11-13T15:33:31.468Z,52.25
2022-11-13T15:36:17.518Z,101.68
2022-11-13T15:39:06.668Z,103.10
2022-11-13T15:41:53.523Z,95.60
2022-11-13T15:44:40.740Z,98.50
2022-11-13T15:47:31.647Z,98.35
2022-11-13T15:50:17.616Z,108.60
2022-11-13T15:53:05.466Z,142.82
2022-11-13T15:55:51.790Z,120.93
2022-11-13T15:58:37.723Z,119.05
2022-11-13T16:01:24.166Z,118.80
2022-11-13T16:04:13.211Z,132.85
2022-11-13T16:06:59.197Z,131.90
2022-11-13T16:09:45.995Z,104.05
2022-11-13T16:12:31.706Z,88.75
2022-11-13T16:15:18.180Z,94.72
2022-11-13T16:18:04.348Z,75.68
2022-11-13T16:20:50.402Z,73.85
2022-11-13T16:23:36.228Z,69.43
2022-11-13T16:26:23.593Z,61.28
2022-11-13T16:29:17.521Z,56.13
2022-11-13T16:32:03.438Z,59.47
2022-11-13T16:34:49.566Z,64.20
2022-11-13T16:37:36.046Z,61.53
2022-11-13T16:40:23.877Z,76.38
2022-11-13T16:43:10.334Z,93.25
2022-11-13T16:45:56.067Z,89.38
2022-11-13T16:48:42.126Z,82.97
2022-11-13T16:51:28.062Z,68.25
2022-11-13T16:54:14.186Z,69.07
2022-11-13T16:57:00.483Z,66.28
2022-11-13T16:59:46.491Z,59.50
2022-11-13T17:02:32.484Z,62.47
2022-11-13T17:05:18.360Z,60.35
2022-11-13T17:08:06.049Z,70.15
2022-11-13T17:10:58.767Z,70.93
2022-11-13T17:13:46.530Z,79.82
2022-11-13T17:16:32.831Z,74.80
2022-11-13T17:19:18.584Z,105.63
2022-11-13T17:22:04.642Z,117.68
2022-11-13T17:24:50.580Z,104.15
2022-11-13T17:27:36.592Z,94.47
2022-11-13T17:30:22.768Z,90.28
2022-11-13T17:33:08.734Z,100.60
2022-11-13T17:35:55.251Z,113.07
2022-11-13T17:38:41.506Z,115.90
2022-11-13T17:41:27.490Z,100.82
2022-11-13T17:44:13.616Z,103.25
2022-11-13T17:46:59.676Z,97.88
2022-11-13T17:49:45.567Z,105.28
2022-11-13T17:52:31.575Z,97.60
2022-11-13T17:55:17.702Z,97.07
2022-11-13T17:58:03.636Z,149.23
2022-11-13T18:00:49.805Z,191.00
2022-11-13T18:03:36.034Z,178.98
2022-11-13T18:06:22.602Z,134.93
2022-11-13T18:09:08.962Z,135.23
2022-11-13T18:11:54.853Z,137.77
2022-11-13T18:14:40.785Z,144.95
2022-11-13T18:17:26.958Z,129.43
2022-11-13T18:20:12.969Z,122.70
2022-11-13T18:22:59.147Z,124.00
2022-11-13T18:25:44.770Z,123.75
2022-11-13T18:28:30.860Z,109.57
2022-11-13T18:31:18.382Z,128.95
2022-11-13T18:34:05.299Z,118.20
2022-11-13T18:36:51.194Z,114.10
2022-11-13T18:39:37.178Z,124.50
2022-11-13T18:42:23.327Z,141.55
2022-11-13T18:45:09.693Z,146.13
2022-11-13T18:47:56.109Z,153.52
2022-11-13T18:50:42.071Z,165.35
2022-11-13T18:53:28.861Z,192.65
2022-11-13T18:56:16.554Z,177.38
2022-11-13T18:59:02.451Z,181.73
2022-11-13T19:01:48.648Z,182.18
2022-11-13T19:04:35.610Z,175.32
2022-11-13T19:07:21.688Z,122.35
2022-11-13T19:10:08.121Z,100.80
2022-11-13T19:12:53.829Z,105.78
2022-11-13T19:15:40.070Z,234.05
2022-11-13T19:18:26.749Z,276.48
2022-11-13T19:21:14.078Z,210.60
2022-11-13T19:24:01.163Z,234.48
2022-11-13T19:26:47.310Z,144.70
2022-11-13T19:29:33.154Z,146.20
2022-11-13T19:32:19.147Z,138.77
2022-11-13T19:35:05.345Z,139.35
2022-11-13T19:37:56.566Z,133.55
2022-11-13T19:40:43.984Z,142.00
2022-11-13T19:43:32.310Z,131.25
2022-11-13T19:46:19.153Z,136.35
2022-11-13T19:49:05.317Z,136.57
2022-11-13T19:51:51.355Z,129.57
2022-11-13T19:54:37.189Z,132.77
2022-11-13T19:57:23.056Z,139.93
2022-11-13T20:00:09.430Z,104.82
2022-11-13T20:02:56.146Z,87.28
2022-11-13T20:05:42.785Z,86.72
2022-11-13T20:08:29.314Z,86.93
2022-11-13T20:11:15.844Z,92.82
2022-11-13T20:14:02.139Z,98.82
2022-11-13T20:16:48.103Z,107.32
2022-11-13T20:19:34.060Z,119.85
2022-11-13T20:22:20.067Z,110.55
2022-11-13T20:25:06.867Z,101.07
2022-11-13T20:27:53.158Z,103.00
2022-11-13T20:30:39.096Z,106.97
2022-11-13T20:33:25.146Z,105.20
2022-11-13T20:36:11.393Z,112.75
2022-11-13T20:38:57.915Z,102.55
2022-11-13T20:41:44.200Z,96.43
2022-11-13T20:44:30.112Z,120.22
2022-11-13T20:47:16.166Z,124.75
2022-11-13T20:50:02.183Z,113.80
2022-11-13T20:52:48.131Z,112.30
2022-11-13T20:55:34.239Z,117.28
2022-11-13T20:58:20.109Z,112.07
2022-11-13T21:01:07.139Z,108.97
2022-11-13T21:03:53.411Z,100.20
2022-11-13T21:06:39.113Z,98.93
2022-11-13T21:09:25.372Z,138.82
2022-11-13T21:12:11.399Z,145.20
2022-11-13T21:14:57.335Z,160.43
2022-11-13T21:17:43.301Z,150.02
2022-11-13T21:20:29.212Z,126.35
2022-11-13T21:23:15.408Z,105.38
2022-11-13T21:26:01.879Z,102.05
2022-11-13T21:28:47.612Z,94.75
2022-11-13T21:31:33.640Z,101.10
2022-11-13T21:34:19.677Z,99.88
2022-11-13T21:37:05.666Z,87.30
2022-11-13T21:39:51.874Z,86.07
2022-11-13T21:42:37.686Z,85.97
2022-11-13T21:45:23.968Z,79.95
2022-11-13T21:48:10.320Z,83.05
2022-11-13T21:50:56.230Z,63.17
2022-11-13T21:53:42.993Z,57.03
2022-11-13T21:56:29.685Z,58.88
2022-11-13T21:59:15.320Z,68.20
2022-11-13T22:02:01.807Z,82.88
2022-11-13T22:04:47.953Z,79.72
2022-11-13T22:07:33.916Z,61.30
2022-11-13T22:10:19.944Z,80.97
2022-11-13T22:13:05.829Z,93.43
2022-11-13T22:15:51.947Z,80.78
2022-11-13T22:18:38.045Z,73.78
2022-11-13T22:21:24.917Z,75.80
2022-11-13T22:24:11.356Z,75.20
2022-11-13T22:26:57.212Z,71.28
2022-11-13T22:29:42.989Z,73.90
2022-11-13T22:32:30.563Z,70.93
2022-11-13T22:35:16.695Z,69.18
2022-11-13T22:38:03.121Z,72.20
2022-11-13T22:40:48.985Z,72.50
2022-11-13T22:43:36.331Z,98.75
2022-11-13T22:46:23.119Z,84.18
2022-11-13T22:49:11.300Z,92.15
2022-11-13T22:51:57.349Z,91.75
2022-11-13T22:54:43.171Z,98.60
2022-11-13T22:57:29.129Z,78.00
2022-11-13T23:00:15.156Z,101.60
2022-11-13T23:03:01.406Z,79.70
2022-11-13T23:05:47.786Z,89.40
2022-11-13T23:08:38.672Z,85.63
2022-11-13T23:11:43.974Z,107.40
2022-11-13T23:14:30.011Z,93.68
2022-11-13T23:17:16.058Z,115.18
2022-11-13T23:20:02.104Z,96.53
2022-11-13T23:25:34.302Z,92.20
2022-11-13T23:28:20.626Z,88.93
2022-11-13T23:31:06.807Z,85.80
2022-11-13T23:33:53.204Z,105.65
2022-11-13T23:36:39.234Z,104.30
2022-11-13T23:39:25.232Z,119.13
2022-11-13T23:42:11.191Z,117.43
2022-11-13T23:44:57.187Z,79.53
2022-11-13T23:47:44.055Z,114.25
2022-11-13T23:50:30.319Z,126.03
2022-11-13T23:53:16.758Z,118.80
2022-11-13T23:56:02.565Z,122.47
2022-11-13T23:58:48.514Z,184.68
